createdAt,value
2017-05-13T00:00:32.866Z,87.10
2017-05-13T00:03:01.510Z,87.00
2017-05-13T00:05:30.585Z,87.10
2017-05-13T00:07:59.225Z,87.20
2017-05-13T00:10:27.868Z,87.40
2017-05-13T00:12:56.525Z,87.30
2017-05-13T00:15:25.549Z,87.60
2017-05-13T00:17:54.189Z,87.50
2017-05-13T00:20:22.877Z,87.50
2017-05-13T00:22:51.890Z,87.70
2017-05-13T00:25:20.542Z,87.60
2017-05-13T00:27:49.218Z,87.90
2017-05-13T00:30:17.858Z,88.30
2017-05-13T00:32:46.113Z,88.30
2017-05-13T00:35:14.781Z,88.40
2017-05-13T00:37:43.792Z,88.70
2017-05-13T00:40:12.050Z,88.70
2017-05-13T00:42:41.344Z,88.60
2017-05-13T00:45:10.609Z,88.50
2017-05-13T00:47:39.246Z,89.00
2017-05-13T00:50:07.929Z,89.40
2017-05-13T00:52:36.575Z,89.10
2017-05-13T00:55:05.215Z,88.30
2017-05-13T00:57:33.915Z,88.30
2017-05-13T01:00:02.557Z,88.50
2017-05-13T01:02:31.221Z,89.00
2017-05-13T01:04:59.501Z,89.00
2017-05-13T01:07:27.752Z,88.50
2017-05-13T01:09:56.397Z,88.40
2017-05-13T01:12:25.086Z,89.00
2017-05-13T01:14:53.737Z,88.00
2017-05-13T01:17:22.738Z,88.00
2017-05-13T01:19:51.405Z,88.10
2017-05-13T01:22:20.421Z,87.90
2017-05-13T01:24:49.070Z,87.60
2017-05-13T01:27:17.745Z,87.60
2017-05-13T01:29:46.393Z,88.40
2017-05-13T01:32:15.042Z,87.60
2017-05-13T01:34:43.709Z,87.80
2017-05-13T01:37:12.729Z,87.80
2017-05-13T01:39:41.370Z,87.80
2017-05-13T01:42:10.053Z,87.30
2017-05-13T01:44:38.699Z,87.30
2017-05-13T01:47:07.341Z,88.10
2017-05-13T01:49:35.614Z,88.10
2017-05-13T01:52:03.865Z,87.70
2017-05-13T01:54:32.509Z,88.00
2017-05-13T01:57:01.165Z,88.20
2017-05-13T01:59:29.809Z,88.00
2017-05-13T02:01:58.058Z,88.00
2017-05-13T02:04:26.913Z,88.00
2017-05-13T02:06:55.563Z,88.60
2017-05-13T02:09:25.346Z,88.60
2017-05-13T02:11:54.006Z,87.70
2017-05-13T02:14:22.651Z,88.00
2017-05-13T02:16:51.667Z,87.60
2017-05-13T02:19:20.947Z,87.70
2017-05-13T02:21:49.964Z,87.80
2017-05-13T02:24:18.610Z,87.60
2017-05-13T02:26:46.894Z,87.60
2017-05-13T02:29:15.148Z,87.80
2017-05-13T02:31:43.793Z,87.90
2017-05-13T02:34:12.637Z,87.90
2017-05-13T02:36:41.657Z,87.60
2017-05-13T02:39:10.307Z,87.70
2017-05-13T02:41:39.614Z,87.60
2017-05-13T02:44:08.258Z,87.40
2017-05-13T02:46:36.912Z,87.70
2017-05-13T02:49:05.776Z,87.60
2017-05-13T02:51:34.416Z,87.10
2017-05-13T02:54:03.068Z,88.20
2017-05-13T02:56:32.031Z,87.90
2017-05-13T02:59:00.282Z,87.90
2017-05-13T03:01:29.303Z,88.00
2017-05-13T03:03:58.168Z,87.60
2017-05-13T03:06:27.186Z,87.10
2017-05-13T03:08:55.835Z,87.50
2017-05-13T03:11:25.149Z,88.00
2017-05-13T03:13:53.797Z,87.20
2017-05-13T03:16:22.055Z,87.20
2017-05-13T03:18:50.831Z,87.80
2017-05-13T03:21:19.730Z,87.90
2017-05-13T03:23:48.379Z,88.00
2017-05-13T03:26:17.152Z,88.20
2017-05-13T03:28:45.798Z,87.90
2017-05-13T03:31:14.442Z,87.90
2017-05-13T03:33:43.118Z,88.10
2017-05-13T03:36:11.369Z,88.10
2017-05-13T03:38:40.383Z,88.20
2017-05-13T03:41:09.358Z,88.20
2017-05-13T03:43:38.316Z,88.60
2017-05-13T03:46:06.958Z,88.60
2017-05-13T03:51:10.710Z,88.10
2017-05-13T03:53:39.746Z,88.40
2017-05-13T03:56:07.995Z,88.40
2017-05-13T03:58:36.647Z,88.30
2017-05-13T04:01:05.315Z,88.00
2017-05-13T04:03:33.974Z,87.90
2017-05-13T04:06:02.626Z,87.90
2017-05-13T04:08:31.679Z,88.30
2017-05-13T04:11:00.334Z,88.00
2017-05-13T04:13:28.983Z,88.00
2017-05-13T04:15:57.898Z,88.00
2017-05-13T04:18:26.546Z,87.90
2017-05-13T04:20:55.203Z,88.00
2017-05-13T04:23:24.289Z,87.60
2017-05-13T04:25:52.943Z,87.80
2017-05-13T04:28:21.590Z,87.70
2017-05-13T04:30:50.275Z,87.60
2017-05-13T04:33:19.122Z,87.90
2017-05-13T04:35:47.374Z,87.90
2017-05-13T04:38:16.054Z,88.30
2017-05-13T04:40:44.705Z,88.20
2017-05-13T04:43:12.970Z,88.20
2017-05-13T04:45:41.258Z,88.00
2017-05-13T04:48:09.918Z,87.60
2017-05-13T04:50:38.563Z,87.50
2017-05-13T04:53:07.335Z,87.40
2017-05-13T04:55:35.983Z,87.60
2017-05-13T04:58:04.634Z,87.90
2017-05-13T05:00:33.297Z,87.30
2017-05-13T05:03:01.950Z,87.60
2017-05-13T05:05:30.212Z,87.60
2017-05-13T05:07:59.851Z,88.20
2017-05-13T05:10:28.110Z,88.20
2017-05-13T05:12:56.365Z,88.00
2017-05-13T05:15:24.878Z,88.00
2017-05-13T05:17:53.527Z,87.80
2017-05-13T05:20:22.653Z,87.40
2017-05-13T05:22:51.829Z,87.40
2017-05-13T05:25:20.473Z,88.10
2017-05-13T05:27:49.122Z,87.80
2017-05-13T05:30:17.898Z,88.20
2017-05-13T05:32:46.945Z,88.50
2017-05-13T05:35:15.603Z,88.30
2017-05-13T05:37:44.571Z,88.20
2017-05-13T05:40:13.222Z,88.20
2017-05-13T05:42:41.888Z,88.30
2017-05-13T05:45:10.749Z,88.40
2017-05-13T05:47:38.994Z,88.40
2017-05-13T05:50:07.647Z,88.70
2017-05-13T05:52:36.411Z,88.50
2017-05-13T05:55:04.658Z,88.50
2017-05-13T05:57:33.321Z,88.40
2017-05-13T06:00:01.598Z,88.40
2017-05-13T06:02:30.238Z,88.40
2017-05-13T06:04:58.901Z,87.70
2017-05-13T06:07:29.907Z,88.20
2017-05-13T06:09:58.574Z,88.00
2017-05-13T06:12:27.879Z,87.90
2017-05-13T06:14:56.134Z,87.90
2017-05-13T06:17:25.163Z,87.90
2017-05-13T06:19:53.831Z,88.00
2017-05-13T06:22:22.854Z,88.00
2017-05-13T06:24:51.510Z,87.60
2017-05-13T06:27:20.667Z,87.60
2017-05-13T06:29:49.319Z,88.00
2017-05-13T06:32:17.967Z,87.80
2017-05-13T06:34:46.851Z,88.00
2017-05-13T06:37:15.893Z,87.50
2017-05-13T06:39:44.548Z,87.40
2017-05-13T06:42:13.432Z,87.10
2017-05-13T06:44:42.078Z,87.20
2017-05-13T06:47:10.732Z,87.10
2017-05-13T06:49:39.418Z,87.00
2017-05-13T06:52:08.075Z,86.50
2017-05-13T06:54:36.733Z,86.10
2017-05-13T06:57:05.787Z,86.20
2017-05-13T06:59:34.450Z,86.10
2017-05-13T07:02:02.711Z,86.20
2017-05-13T07:04:31.547Z,86.00
2017-05-13T07:07:00.214Z,86.40
2017-05-13T07:09:28.854Z,85.90
2017-05-13T07:11:57.686Z,85.30
2017-05-13T07:14:26.346Z,84.90
2017-05-13T07:16:55.005Z,85.00
2017-05-13T07:19:23.675Z,86.00
2017-05-13T07:21:51.940Z,86.00
2017-05-13T07:24:21.453Z,85.70
2017-05-13T07:26:50.445Z,86.00
2017-05-13T07:29:19.107Z,85.90
2017-05-13T07:31:47.757Z,85.10
2017-05-13T07:34:16.703Z,85.10
2017-05-13T07:36:46.110Z,84.30
2017-05-13T07:39:14.807Z,82.70
2017-05-13T07:41:43.505Z,82.70
2017-05-13T07:44:12.168Z,83.80
2017-05-13T07:46:40.430Z,83.80
2017-05-13T07:49:09.497Z,83.40
2017-05-13T07:51:38.125Z,81.80
2017-05-13T07:54:06.768Z,82.30
2017-05-13T07:56:35.845Z,82.00
2017-05-13T07:59:04.514Z,83.20
2017-05-13T08:01:33.181Z,82.20
2017-05-13T08:04:01.570Z,82.20
2017-05-13T08:06:30.233Z,82.20
2017-05-13T08:08:58.890Z,81.40
2017-05-13T08:11:27.185Z,81.40
2017-05-13T08:13:56.712Z,82.60
2017-05-13T08:16:25.354Z,82.30
2017-05-13T08:18:53.647Z,82.30
2017-05-13T08:21:22.316Z,82.50
2017-05-13T08:23:50.575Z,82.50
2017-05-13T08:26:19.622Z,82.00
2017-05-13T08:28:48.290Z,81.90
2017-05-13T08:31:16.543Z,81.90
2017-05-13T08:33:45.389Z,81.80
2017-05-13T08:36:14.061Z,82.10
2017-05-13T08:38:42.720Z,82.10
2017-05-13T08:41:11.424Z,81.60
2017-05-13T08:43:40.070Z,83.00
2017-05-13T08:46:08.732Z,83.00
2017-05-13T08:48:37.414Z,82.50
2017-05-13T08:51:06.490Z,82.50
2017-05-13T08:53:47.912Z,82.90
2017-05-13T08:56:16.573Z,83.40
2017-05-13T08:58:45.257Z,83.80
2017-05-13T09:01:13.976Z,83.80
2017-05-13T09:03:42.610Z,84.70
2017-05-13T09:06:11.530Z,84.70
2017-05-13T09:08:40.586Z,83.80
2017-05-13T09:11:09.368Z,84.60
2017-05-13T09:13:38.190Z,85.60
2017-05-13T09:16:07.657Z,85.30
2017-05-13T09:18:36.354Z,85.10
2017-05-13T09:21:05.379Z,85.10
2017-05-13T09:23:34.102Z,85.20
2017-05-13T09:26:02.956Z,84.90
2017-05-13T09:28:31.846Z,84.90
2017-05-13T09:31:00.613Z,85.10
2017-05-13T09:33:29.285Z,84.60
2017-05-13T09:35:57.684Z,84.60
2017-05-13T09:38:26.811Z,84.10
2017-05-13T09:40:55.072Z,84.10
2017-05-13T09:43:23.740Z,84.30
2017-05-13T09:45:52.730Z,84.30
2017-05-13T09:48:21.442Z,83.60
2017-05-13T09:50:50.087Z,84.10
2017-05-13T09:53:19.088Z,84.30
2017-05-13T09:55:47.346Z,84.30
2017-05-13T09:58:15.991Z,81.50
2017-05-13T10:00:45.021Z,79.60
2017-05-13T10:03:13.686Z,79.80
2017-05-13T10:05:42.709Z,79.90
2017-05-13T10:08:11.674Z,78.80
2017-05-13T10:10:40.706Z,77.90
2017-05-13T10:13:09.380Z,75.30
2017-05-13T10:15:38.067Z,75.00
2017-05-13T10:18:06.732Z,74.20
2017-05-13T10:20:34.985Z,74.20
2017-05-13T10:23:03.317Z,76.00
2017-05-13T10:25:32.035Z,73.40
2017-05-13T10:28:00.690Z,73.90
2017-05-13T10:30:29.638Z,74.10
2017-05-13T10:32:58.976Z,71.40
2017-05-13T10:35:27.829Z,71.20
2017-05-13T10:37:56.479Z,72.20
2017-05-13T10:40:25.412Z,70.90
2017-05-13T10:42:54.057Z,70.20
2017-05-13T10:45:23.082Z,68.90
2017-05-13T10:47:51.750Z,69.00
2017-05-13T10:50:20.026Z,69.00
2017-05-13T10:52:48.696Z,65.30
2017-05-13T10:55:17.542Z,66.90
2017-05-13T10:57:46.193Z,65.20
2017-05-13T11:00:15.402Z,64.80
2017-05-13T11:02:44.239Z,64.40
2017-05-13T11:05:12.922Z,63.10
2017-05-13T11:07:41.566Z,61.80
2017-05-13T11:10:10.329Z,61.40
2017-05-13T11:12:39.346Z,60.60
2017-05-13T11:15:08.858Z,59.10
2017-05-13T11:17:37.527Z,60.00
2017-05-13T11:20:05.786Z,60.00
2017-05-13T11:22:34.437Z,62.30
2017-05-13T11:25:04.110Z,63.90
2017-05-13T11:27:32.767Z,63.90
2017-05-13T11:30:01.024Z,63.90
2017-05-13T11:32:29.703Z,64.60
2017-05-13T11:34:58.359Z,65.60
2017-05-13T11:37:27.416Z,66.50
2017-05-13T11:39:56.082Z,66.90
2017-05-13T11:42:24.744Z,67.30
2017-05-13T11:44:53.426Z,67.40
2017-05-13T11:47:21.707Z,67.40
2017-05-13T11:49:50.714Z,67.70
2017-05-13T11:52:19.566Z,67.40
2017-05-13T11:54:48.846Z,67.70
2017-05-13T11:57:17.497Z,67.00
2017-05-13T11:59:46.097Z,67.00
2017-05-13T12:02:14.746Z,66.70
2017-05-13T12:04:43.272Z,66.70
2017-05-13T12:07:11.920Z,66.10
2017-05-13T12:09:40.567Z,65.60
2017-05-13T12:12:09.589Z,66.40
2017-05-13T12:14:38.576Z,65.90
2017-05-13T12:17:07.226Z,66.50
2017-05-13T12:19:36.250Z,66.80
2017-05-13T12:22:04.917Z,67.80
2017-05-13T12:24:33.585Z,68.80
2017-05-13T12:27:03.105Z,68.70
2017-05-13T12:29:32.160Z,69.00
2017-05-13T12:32:00.915Z,68.80
2017-05-13T12:34:29.772Z,69.10
2017-05-13T12:36:58.819Z,69.50
2017-05-13T12:39:27.854Z,69.50
2017-05-13T12:41:56.790Z,68.90
2017-05-13T12:44:25.482Z,69.60
2017-05-13T12:46:54.129Z,69.20
2017-05-13T12:49:22.946Z,69.90
2017-05-13T12:51:51.493Z,69.90
2017-05-13T12:54:20.283Z,71.30
2017-05-13T12:56:48.934Z,72.40
2017-05-13T12:59:17.327Z,72.40
2017-05-13T13:01:46.228Z,73.10
2017-05-13T13:04:14.890Z,73.40
2017-05-13T13:06:44.204Z,73.70
2017-05-13T13:09:12.859Z,74.60
2017-05-13T13:11:41.506Z,75.20
2017-05-13T13:14:10.445Z,75.70
2017-05-13T13:16:39.093Z,76.00
2017-05-13T13:19:07.745Z,75.30
2017-05-13T13:21:36.575Z,74.60
2017-05-13T13:24:05.214Z,75.00
2017-05-13T13:26:33.872Z,74.90
2017-05-13T13:29:02.454Z,74.90
2017-05-13T13:31:30.963Z,75.50
2017-05-13T13:34:00.092Z,76.30
2017-05-13T13:36:28.975Z,75.90
2017-05-13T13:38:57.222Z,75.90
2017-05-13T13:41:25.883Z,75.50
2017-05-13T13:43:54.547Z,75.40
2017-05-13T13:46:23.888Z,75.60
2017-05-13T13:48:52.524Z,76.50
2017-05-13T13:51:21.449Z,75.70
2017-05-13T13:53:50.115Z,75.50
2017-05-13T13:56:18.382Z,75.50
2017-05-13T13:58:47.375Z,76.80
2017-05-13T14:01:16.924Z,76.40
2017-05-13T14:03:45.579Z,75.70
2017-05-13T14:06:14.542Z,75.60
2017-05-13T14:08:43.641Z,76.00
2017-05-13T14:11:12.661Z,75.80
2017-05-13T14:13:41.526Z,75.10
2017-05-13T14:16:10.549Z,76.50
2017-05-13T14:18:39.196Z,76.40
2017-05-13T14:21:08.330Z,77.00
2017-05-13T14:23:36.975Z,76.40
2017-05-13T14:26:05.991Z,75.90
2017-05-13T14:28:35.490Z,75.80
2017-05-13T14:31:04.145Z,77.80
2017-05-13T14:33:32.395Z,77.80
2017-05-13T14:36:01.406Z,81.40
2017-05-13T14:38:30.057Z,81.50
2017-05-13T14:40:58.308Z,81.50
2017-05-13T14:43:27.026Z,82.30
2017-05-13T14:45:55.689Z,82.60
2017-05-13T14:48:25.285Z,82.80
2017-05-13T14:50:53.949Z,83.30
2017-05-13T14:53:22.602Z,83.60
2017-05-13T14:55:51.250Z,84.00
2017-05-13T14:58:19.945Z,82.60
2017-05-13T15:00:48.617Z,83.00
2017-05-13T15:03:17.266Z,83.20
2017-05-13T15:05:46.553Z,82.90
2017-05-13T15:08:15.494Z,82.60
2017-05-13T15:10:44.154Z,82.30
2017-05-13T15:13:13.146Z,81.30
2017-05-13T15:15:41.801Z,82.80
2017-05-13T15:18:10.451Z,82.10
2017-05-13T15:20:39.240Z,82.10
2017-05-13T15:23:07.494Z,82.10
2017-05-13T15:25:36.158Z,78.90
2017-05-13T15:28:04.828Z,79.60
2017-05-13T15:30:33.475Z,78.20
2017-05-13T15:33:01.796Z,78.20
2017-05-13T15:35:30.797Z,76.90
2017-05-13T15:37:59.594Z,76.70
2017-05-13T15:40:28.249Z,76.40
2017-05-13T15:42:56.931Z,76.70
2017-05-13T15:45:25.588Z,77.40
2017-05-13T15:47:54.616Z,77.20
2017-05-13T15:50:23.621Z,77.20
2017-05-13T15:52:53.446Z,75.00
2017-05-13T15:55:22.102Z,75.60
2017-05-13T15:57:51.093Z,75.60
2017-05-13T16:00:19.741Z,74.60
2017-05-13T16:02:48.769Z,73.90
2017-05-13T16:05:17.629Z,74.90
2017-05-13T16:07:46.280Z,75.70
2017-05-13T16:10:15.379Z,75.40
2017-05-13T16:12:45.310Z,76.10
2017-05-13T16:15:14.761Z,76.70
2017-05-13T16:17:43.420Z,77.20
2017-05-13T16:20:12.386Z,77.70
2017-05-13T16:22:41.413Z,76.50
2017-05-13T16:25:10.073Z,76.90
2017-05-13T16:27:39.169Z,76.60
2017-05-13T16:30:07.814Z,76.60
2017-05-13T16:32:36.472Z,75.90
2017-05-13T16:35:05.756Z,75.20
2017-05-13T16:37:34.389Z,75.90
2017-05-13T16:40:03.025Z,75.80
2017-05-13T16:42:31.698Z,75.40
2017-05-13T16:45:01.009Z,75.00
2017-05-13T16:47:29.671Z,74.40
2017-05-13T16:49:58.335Z,74.90
2017-05-13T16:52:27.347Z,74.60
2017-05-13T16:54:56.001Z,74.50
2017-05-13T16:57:24.675Z,74.80
2017-05-13T16:59:52.924Z,74.80
2017-05-13T17:02:21.817Z,74.20
2017-05-13T17:04:50.765Z,74.40
2017-05-13T17:07:19.402Z,73.70
2017-05-13T17:09:48.364Z,73.70
2017-05-13T17:12:17.737Z,74.30
2017-05-13T17:14:46.378Z,74.40
2017-05-13T17:17:15.027Z,75.20
2017-05-13T17:19:43.721Z,75.70
2017-05-13T17:22:11.977Z,75.70
2017-05-13T17:24:40.645Z,76.20
2017-05-13T17:27:08.924Z,76.30
2017-05-13T17:29:37.585Z,76.60
2017-05-13T17:32:06.608Z,76.80
2017-05-13T17:34:35.407Z,76.80
2017-05-13T17:37:04.061Z,77.30
2017-05-13T17:39:32.732Z,78.50
2017-05-13T17:42:01.429Z,78.70
2017-05-13T17:44:30.093Z,78.50
2017-05-13T17:46:59.136Z,78.10
2017-05-13T17:49:28.097Z,78.10
2017-05-13T17:51:56.753Z,78.40
2017-05-13T17:54:25.891Z,79.60
2017-05-13T17:56:54.681Z,81.40
2017-05-13T17:59:23.580Z,82.40
2017-05-13T18:01:52.240Z,82.20
2017-05-13T18:04:21.045Z,81.90
2017-05-13T18:06:49.328Z,81.90
2017-05-13T18:09:17.989Z,82.00
2017-05-13T18:11:46.849Z,82.30
2017-05-13T18:14:15.120Z,82.30
2017-05-13T18:16:44.146Z,83.60
2017-05-13T18:19:13.006Z,83.30
2017-05-13T18:21:42.019Z,83.10
2017-05-13T18:24:10.706Z,82.60
2017-05-13T18:26:39.321Z,82.60
2017-05-13T18:29:08.539Z,85.20
2017-05-13T18:31:37.563Z,83.90
2017-05-13T18:34:06.249Z,84.00
2017-05-13T18:36:34.897Z,82.80
2017-05-13T18:39:03.166Z,82.70
2017-05-13T18:41:31.446Z,78.50
2017-05-13T18:44:00.796Z,76.10
2017-05-13T18:46:29.636Z,75.60
2017-05-13T18:48:59.201Z,76.20
2017-05-13T18:51:27.838Z,75.60
2017-05-13T18:53:56.852Z,76.60
2017-05-13T18:56:26.002Z,77.70
2017-05-13T18:58:54.622Z,77.80
2017-05-13T19:01:23.281Z,78.30
2017-05-13T19:03:53.378Z,78.30
2017-05-13T19:06:22.022Z,79.10
2017-05-13T19:08:51.092Z,79.50
2017-05-13T19:11:20.059Z,79.60
2017-05-13T19:13:48.674Z,79.50
2017-05-13T19:16:17.327Z,79.90
2017-05-13T19:18:46.369Z,80.40
2017-05-13T19:21:15.018Z,80.90
2017-05-13T19:23:43.272Z,80.90
2017-05-13T19:26:11.665Z,81.30
2017-05-13T19:28:39.915Z,81.60
2017-05-13T19:31:08.566Z,82.80
2017-05-13T19:33:37.398Z,82.60
2017-05-13T19:36:06.437Z,82.20
2017-05-13T19:38:35.078Z,81.80
2017-05-13T19:41:04.006Z,82.00
2017-05-13T19:43:32.747Z,82.00
2017-05-13T19:46:01.002Z,82.00
2017-05-13T19:48:30.852Z,81.30
2017-05-13T19:50:59.854Z,82.90
2017-05-13T19:53:28.610Z,83.30
2017-05-13T19:55:57.937Z,83.30
2017-05-13T19:58:26.592Z,83.80
2017-05-13T20:00:56.784Z,84.40
2017-05-13T20:03:26.680Z,84.30
2017-05-13T20:05:55.306Z,84.60
2017-05-13T20:08:24.332Z,84.30
2017-05-13T20:10:53.398Z,84.80
2017-05-13T20:13:22.415Z,84.00
2017-05-13T20:15:51.326Z,84.40
2017-05-13T20:18:19.609Z,84.40
2017-05-13T20:20:48.271Z,84.10
2017-05-13T20:23:16.935Z,84.00
2017-05-13T20:25:45.622Z,84.10
2017-05-13T20:28:14.283Z,84.20
2017-05-13T20:30:43.308Z,84.80
2017-05-13T20:33:11.989Z,84.70
2017-05-13T20:35:40.650Z,84.40
2017-05-13T20:38:10.185Z,85.30
2017-05-13T20:40:39.601Z,84.80
2017-05-13T20:43:08.250Z,85.60
2017-05-13T20:45:38.084Z,86.50
2017-05-13T20:48:07.341Z,87.40
2017-05-13T20:50:36.872Z,87.60
2017-05-13T20:53:05.529Z,88.20
2017-05-13T20:55:34.409Z,88.10
2017-05-13T20:58:04.402Z,88.10
2017-05-13T21:00:33.061Z,88.10
2017-05-13T21:03:01.771Z,88.50
2017-05-13T21:05:30.417Z,88.50
2017-05-13T21:07:59.066Z,88.60
2017-05-13T21:10:29.196Z,88.30
2017-05-13T21:12:57.466Z,88.30
2017-05-13T21:15:26.125Z,88.50
2017-05-13T21:17:54.813Z,88.80
2017-05-13T21:20:23.602Z,88.70
2017-05-13T21:22:52.259Z,88.90
2017-05-13T21:25:20.972Z,89.40
2017-05-13T21:27:49.993Z,88.70
2017-05-13T21:30:18.997Z,88.80
2017-05-13T21:32:47.969Z,89.40
2017-05-13T21:35:16.634Z,89.60
2017-05-13T21:37:51.451Z,89.20
2017-05-13T21:40:20.485Z,88.90
2017-05-13T21:42:48.745Z,89.00
2017-05-13T21:45:17.415Z,88.90
2017-05-13T21:47:46.442Z,89.10
2017-05-13T21:50:14.689Z,89.10
2017-05-13T21:52:43.682Z,88.50
2017-05-13T21:55:12.326Z,88.30
2017-05-13T21:57:40.989Z,88.30
2017-05-13T22:00:09.698Z,88.40
2017-05-13T22:02:38.646Z,88.10
2017-05-13T22:05:07.298Z,87.80
2017-05-13T22:07:36.158Z,87.80
2017-05-13T22:10:04.426Z,87.40
2017-05-13T22:12:33.193Z,87.20
2017-05-13T22:15:01.969Z,87.60
2017-05-13T22:17:30.979Z,87.80
2017-05-13T22:19:59.648Z,87.80
2017-05-13T22:22:28.359Z,87.90
2017-05-13T22:24:57.005Z,87.70
2017-05-13T22:27:25.668Z,87.80
2017-05-13T22:29:53.963Z,87.80
2017-05-13T22:32:22.613Z,87.80
2017-05-13T22:34:51.288Z,87.60
2017-05-13T22:37:20.203Z,87.70
2017-05-13T22:39:48.862Z,87.60
2017-05-13T22:42:17.870Z,87.80
2017-05-13T22:44:46.785Z,87.90
2017-05-13T22:47:15.038Z,87.90
2017-05-13T22:49:43.684Z,87.60
2017-05-13T22:52:12.471Z,87.80
2017-05-13T22:54:41.113Z,87.90
2017-05-13T22:57:09.779Z,87.60
2017-05-13T22:59:38.068Z,87.60
2017-05-13T23:02:06.334Z,87.60
2017-05-13T23:04:35.010Z,88.10
2017-05-13T23:07:03.705Z,88.20
2017-05-13T23:09:32.346Z,88.00
2017-05-13T23:12:01.489Z,87.80
2017-05-13T23:14:30.454Z,87.70
2017-05-13T23:16:59.097Z,87.80
2017-05-13T23:19:27.746Z,87.60
2017-05-13T23:21:56.698Z,87.60
2017-05-13T23:24:24.965Z,87.60
2017-05-13T23:26:53.214Z,87.70
2017-05-13T23:29:21.905Z,87.90
2017-05-13T23:31:50.169Z,87.80
2017-05-13T23:34:18.829Z,87.80
2017-05-13T23:36:47.655Z,88.00
2017-05-13T23:39:16.309Z,87.90
2017-05-13T23:41:44.953Z,87.80
2017-05-13T23:44:13.418Z,87.80
2017-05-13T23:46:42.434Z,87.80
2017-05-13T23:49:11.117Z,87.70
2017-05-13T23:51:39.353Z,87.60
2017-05-13T23:54:08.872Z,87.70
2017-05-13T23:56:37.882Z,87.50
2017-05-13T23:59:07.533Z,87.40
